Weather reports worldwide

Advertisment
Kinbrace, United Kingdom (99016): temperature & dewpoint: 11.08.2017 08:00:00 - 17.08.2017 08:00:00 (BST)Kinbrace, United Kingdom (99016): wind speed & gusts: 11.08.2017 08:00:00 - 17.08.2017 08:00:00 (BST)Kinbrace, United Kingdom (99016): wind direction: 11.08.2017 08:00:00 - 17.08.2017 08:00:00 (BST)Kinbrace, United Kingdom (99016): visibility: 11.08.2017 08:00:00 - 17.08.2017 08:00:00 (BST)Kinbrace, United Kingdom (99016): precipitation: 11.08.2017 08:00:00 - 17.08.2017 08:00:00 (BST)
Date & Time tt [°C] td [°C] ff [km/h] ff [kn] fx [km/h] fx [kn] dd vv [km] rr [mm]
17.08.2017 08:00:00 13,2 10,5 21 11 - - SSE - 0,0
17.08.2017 07:00:00 11,1 9,9 2 1 - - S - 0,0
17.08.2017 06:00:00 10,2 9,3 0 0 - - N - 0,0
17.08.2017 05:00:00 10,5 8,6 5 3 - - SSE - 0,0
17.08.2017 04:00:00 12,2 9,2 11 6 - - SE - 0,0
17.08.2017 03:00:00 14,0 11,8 5 3 - - SE - 0,0
17.08.2017 02:00:00 14,6 13,6 15 8 - - SSE - 0,4
17.08.2017 01:00:00 15,0 13,1 18 10 - - SSE - 0,0
17.08.2017 00:00:00 15,2 12,9 21 11 - - SE - 0,0
16.08.2017 23:00:00 15,1 12,5 26 14 - - SE - 0,0
16.08.2017 22:00:00 14,5 12,4 28 15 - - SE - 0,0
16.08.2017 21:00:00 14,3 12,9 28 15 46 25 SE - 0,6
16.08.2017 20:00:00 15,1 12,2 28 15 46 25 SE - 0,0
16.08.2017 19:00:00 16,4 11,2 28 15 46 25 SE - 0,0
16.08.2017 18:00:00 16,2 11,2 29 16 55 30 SSE - 0,0
16.08.2017 17:00:00 16,0 10,8 35 19 54 29 SSE - 0,0
16.08.2017 16:00:00 16,1 10,4 37 20 57 31 S - 0,0
16.08.2017 15:00:00 15,4 10,5 34 18 54 29 SSE - 0,0
16.08.2017 14:00:00 15,6 10,4 37 20 48 26 SSE - 0,0
16.08.2017 13:00:00 14,9 11,0 28 15 - - SSE - 0,2
16.08.2017 12:00:00 15,2 9,6 29 16 - - SSE - 0,0
16.08.2017 11:00:00 15,9 10,4 28 15 - - SSE - 0,0
16.08.2017 10:00:00 15,1 9,5 24 13 - - SSE 6 0,0
16.08.2017 09:00:00 13,9 10,6 18 10 - - SSE - 0,0
16.08.2017 08:00:00 12,3 9,6 13 7 - - SSE - 0,0
16.08.2017 07:00:00 9,6 8,7 2 1 - - S - 0,0
16.08.2017 06:00:00 8,5 7,8 0 0 - - N - 0,0
16.08.2017 05:00:00 8,7 8,0 8 4 - - ESE - 0,0
16.08.2017 04:00:00 8,1 7,5 0 0 - - N - 0,0
16.08.2017 03:00:00 8,5 7,0 11 6 - - SSW - 0,0
16.08.2017 02:00:00 10,8 8,5 13 7 - - WSW - 0,0
16.08.2017 01:00:00 10,8 8,8 13 7 - - WSW - 0,0
16.08.2017 00:00:00 11,2 8,6 8 4 - - SW - 0,0
15.08.2017 23:00:00 11,7 9,6 0 0 - - N - 0,0
15.08.2017 22:00:00 12,1 9,4 0 0 - - N - 0,0
15.08.2017 21:00:00 12,8 9,2 0 0 - - N - 0,0
15.08.2017 20:00:00 13,3 7,9 11 6 - - W - 0,0
15.08.2017 19:00:00 15,4 9,1 16 9 - - W - 0,0
15.08.2017 18:00:00 14,7 9,2 15 8 - - W - 0,0
15.08.2017 17:00:00 17,0 10,2 16 9 - - W - 0,0
15.08.2017 16:00:00 17,8 11,6 16 9 - - W - 0,2
15.08.2017 15:00:00 16,8 11,7 16 9 - - WSW - 1,0
15.08.2017 14:00:00 15,8 9,7 16 9 - - WSW - 0,0
15.08.2017 13:00:00 17,4 10,1 22 12 - - WSW - 0,0
15.08.2017 12:00:00 16,2 11,0 21 11 - - W - 0,0
15.08.2017 11:00:00 15,1 10,1 24 13 - - W - 0,0
15.08.2017 10:00:00 14,2 9,9 18 10 - - W 10 0,0
15.08.2017 09:00:00 13,3 10,9 0 0 - - N - -
15.08.2017 08:00:00 11,4 11,2 2 1 - - S - 0,0
15.08.2017 07:00:00 10,8 10,4 0 0 - - N - 0,0
15.08.2017 06:00:00 10,7 10,1 0 0 - - N - 0,0
15.08.2017 05:00:00 11,5 11,0 8 4 - - E - 0,0
15.08.2017 04:00:00 11,8 11,0 0 0 - - N - 0,0
15.08.2017 03:00:00 12,3 11,5 0 0 - - N - 0,0
15.08.2017 02:00:00 13,0 11,8 0 0 - - N - 0,0
15.08.2017 01:00:00 13,9 12,6 8 4 - - SSW - 0,0
15.08.2017 00:00:00 14,7 12,9 13 7 - - SE - 0,0
14.08.2017 23:00:00 14,2 12,8 15 8 - - ESE - 0,0
14.08.2017 22:00:00 14,2 12,8 18 10 - - ESE 10 0,0
14.08.2017 21:00:00 14,2 12,7 22 12 - - SE - 0,0
14.08.2017 20:00:00 15,0 13,0 26 14 - - SE - 0,0
14.08.2017 19:00:00 15,0 13,2 28 15 - - SE - 0,0
14.08.2017 18:00:00 15,0 12,9 29 16 - - SE - 0,0
14.08.2017 17:00:00 15,1 13,3 28 15 - - SE - 0,2
14.08.2017 16:00:00 13,5 12,6 31 17 46 25 SE - 0,8
14.08.2017 15:00:00 13,7 12,6 26 14 - - SE - 0,2
14.08.2017 14:00:00 13,0 12,0 28 15 - - SE - 1,4
14.08.2017 13:00:00 12,8 11,7 21 11 - - SE - 0,8
14.08.2017 12:00:00 12,2 10,9 21 11 - - SE - 0,4
14.08.2017 11:00:00 12,7 9,9 15 8 - - SE - 0,2
14.08.2017 10:00:00 12,7 9,9 18 10 - - SSE 8 0,0
14.08.2017 09:00:00 12,3 10,4 18 10 - - SSE - 0,0
14.08.2017 08:00:00 12,3 8,9 16 9 - - SE - 0,0
14.08.2017 07:00:00 11,5 8,4 16 9 - - ESE - -
14.08.2017 06:00:00 11,1 9,1 16 9 - - ESE - 0,0
14.08.2017 05:00:00 10,3 8,2 16 9 - - ESE - 0,0
14.08.2017 04:00:00 10,9 8,4 16 9 - - ESE - 0,0
14.08.2017 03:00:00 11,2 9,0 15 8 - - ESE - 0,0
14.08.2017 02:00:00 9,5 8,4 0 0 - - N - 0,0
14.08.2017 01:00:00 10,7 9,1 11 6 - - ESE - 0,0
14.08.2017 00:00:00 11,6 9,1 11 6 - - SE - 0,0
13.08.2017 23:00:00 11,1 8,6 0 0 - - N - 0,0
13.08.2017 22:00:00 12,5 8,3 8 4 - - SE - 0,0
13.08.2017 21:00:00 12,9 7,9 0 0 - - N - 0,0
13.08.2017 20:00:00 13,6 7,3 0 0 - - N - -
13.08.2017 19:00:00 14,1 7,0 11 6 - - NNW - 0,0
13.08.2017 18:00:00 15,7 7,7 15 8 - - NNW - 0,0
13.08.2017 17:00:00 15,6 8,6 18 10 - - NW - 0,0
13.08.2017 16:00:00 14,2 7,5 15 8 - - NW - 0,0
13.08.2017 15:00:00 14,9 7,1 16 9 - - WNW - 0,0
13.08.2017 14:00:00 15,1 7,9 18 10 - - WNW - 0,0
13.08.2017 13:00:00 14,2 10,0 13 7 - - W - 0,0
13.08.2017 12:00:00 15,2 7,8 15 8 - - W - 0,0
13.08.2017 11:00:00 12,1 8,5 16 9 - - W - 0,0
13.08.2017 10:00:00 12,4 8,6 11 6 - - W - 0,0
13.08.2017 09:00:00 11,9 7,9 15 8 - - SW - 0,0
13.08.2017 08:00:00 9,9 7,9 8 4 - - WSW - 0,0
13.08.2017 07:00:00 6,5 5,9 0 0 - - N - 0,0
13.08.2017 06:00:00 6,8 5,9 2 1 - - E - 0,0
13.08.2017 05:00:00 7,3 6,9 2 1 - - NNW - 0,0
13.08.2017 04:00:00 6,0 5,5 2 1 - - ENE - 0,0
13.08.2017 03:00:00 7,6 7,0 8 4 - - W - 0,0
13.08.2017 02:00:00 7,6 6,5 0 0 - - N - 0,0
13.08.2017 01:00:00 8,4 7,4 2 1 - - NW - 0,0
13.08.2017 00:00:00 8,8 6,8 13 7 - - W - 0,0
12.08.2017 23:00:00 9,7 8,3 0 0 - - N - 0,0
12.08.2017 22:00:00 8,9 6,4 0 0 - - N - 0,0
12.08.2017 21:00:00 9,8 6,2 0 0 - - N - 0,0
12.08.2017 20:00:00 12,4 6,4 13 7 - - NW - 0,0
12.08.2017 19:00:00 13,6 6,9 21 11 - - NNW - 0,0
12.08.2017 18:00:00 14,9 8,1 16 9 - - NNW - 0,0
12.08.2017 17:00:00 13,2 8,2 22 12 - - NNW - 0,0
12.08.2017 16:00:00 14,0 6,9 18 10 - - NNW - 0,0
12.08.2017 15:00:00 14,0 7,7 22 12 - - NNW - 0,0
12.08.2017 14:00:00 13,6 6,7 26 14 - - NNW - 0,0
12.08.2017 13:00:00 13,7 8,9 21 11 - - NW - 0,0
12.08.2017 12:00:00 12,2 8,9 26 14 - - NNW - 0,0
12.08.2017 11:00:00 11,4 8,9 22 12 - - NW - 0,2
12.08.2017 10:00:00 11,2 10,1 13 7 - - NW 0,05 0,2
12.08.2017 09:00:00 11,1 9,8 15 8 - - WNW - 0,4
12.08.2017 08:00:00 11,7 10,9 8 4 - - WNW - -
12.08.2017 07:00:00 10,7 10,3 0 0 - - N - 0,0
12.08.2017 06:00:00 10,2 9,9 8 4 - - N - 0,0
12.08.2017 05:00:00 10,2 9,8 4 2 - - NNE - 0,0
12.08.2017 04:00:00 10,5 10,2 0 0 - - N - 0,0
12.08.2017 03:00:00 10,0 9,6 0 0 - - N - 0,0
12.08.2017 02:00:00 10,6 10,2 0 0 - - N - 0,0
12.08.2017 01:00:00 10,7 10,2 13 7 - - NW - 0,0
12.08.2017 00:00:00 11,2 10,7 8 4 - - NNW - 0,0
11.08.2017 23:00:00 11,2 10,7 13 7 - - NW - 0,2
11.08.2017 22:00:00 11,2 10,5 9 5 - - NNW - 0,0
11.08.2017 21:00:00 11,3 10,6 16 9 - - NNW - 0,4
11.08.2017 20:00:00 13,9 11,2 16 9 - - W - 0,0
11.08.2017 19:00:00 16,3 11,8 21 11 - - WNW - 0,0
11.08.2017 18:00:00 15,8 11,5 26 14 48 26 W - 0,0
11.08.2017 17:00:00 15,8 12,5 31 17 46 25 WSW - 0,0
11.08.2017 16:00:00 17,6 12,7 34 18 52 28 W - 0,0
11.08.2017 15:00:00 16,8 12,7 24 13 - - WSW - 0,0
11.08.2017 14:00:00 16,8 12,2 26 14 - - W - 0,0
11.08.2017 13:00:00 16,5 14,5 24 13 - - W - 0,4
11.08.2017 12:00:00 15,3 14,7 15 8 - - SSW - 1,2
11.08.2017 11:00:00 15,0 13,1 22 12 - - S - 0,0
11.08.2017 10:00:00 15,8 13,4 24 13 - - SSW 1,1 0,0
11.08.2017 09:00:00 15,7 12,6 16 9 - - SSW - 0,0
11.08.2017 08:00:00 15,2 12,0 15 8 - - SW - 0,0

tt = temperature
td = dewpoint
ff = wind speed
fx = gusts
dd = wind direction
vv = visibility
rr = precipitation

Next stations